createdAt,value
2022-09-09T00:11:18.552Z,100099.17
2022-09-09T00:26:42.128Z,100096.91
2022-09-09T00:42:19.416Z,100091.58
2022-09-09T00:57:36.004Z,100089.95
2022-09-09T01:12:45.032Z,100097.80
2022-09-09T01:27:58.062Z,100117.59
2022-09-09T01:43:04.217Z,100129.95
2022-09-09T01:58:38.141Z,100141.94
2022-09-09T02:13:44.101Z,100139.38
2022-09-09T02:28:51.477Z,100137.42
2022-09-09T02:43:55.428Z,100137.91
2022-09-09T02:58:58.629Z,100134.80
2022-09-09T03:14:03.799Z,100144.77
2022-09-09T03:29:09.009Z,100134.32
2022-09-09T03:44:12.189Z,100135.19
2022-09-09T03:59:16.357Z,100132.17
2022-09-09T04:14:20.664Z,100132.62
2022-09-09T04:29:24.330Z,100139.41
2022-09-09T04:44:27.764Z,100143.95
2022-09-09T04:59:31.441Z,100145.80
2022-09-09T05:14:38.500Z,100155.67
2022-09-09T05:29:44.689Z,100153.95
2022-09-09T05:44:48.389Z,100148.73
2022-09-09T05:59:52.225Z,100156.52
2022-09-09T06:14:56.100Z,100164.52
2022-09-09T06:29:59.377Z,100175.88
2022-09-09T06:45:02.735Z,100195.71
2022-09-09T07:00:15.593Z,100202.06
2022-09-09T07:15:20.146Z,100204.91
2022-09-09T07:30:27.530Z,100205.81
2022-09-09T07:45:32.889Z,100216.86
2022-09-09T08:00:36.043Z,100215.50
2022-09-09T08:15:39.847Z,100238.07
2022-09-09T08:30:43.556Z,100249.13
2022-09-09T08:46:10.884Z,100258.72
2022-09-09T09:01:24.673Z,100270.52
2022-09-09T09:16:45.002Z,100274.52
2022-09-09T09:32:00.087Z,100284.94
2022-09-09T09:47:22.660Z,100289.45
2022-09-09T10:02:42.148Z,100285.95
2022-09-09T10:18:24.089Z,100294.52
2022-09-09T10:33:52.388Z,100293.91
2022-09-09T10:49:05.667Z,100312.42
2022-09-09T11:04:20.421Z,100321.07
2022-09-09T11:19:50.183Z,100325.46
2022-09-09T11:35:07.320Z,100331.05
2022-09-09T11:50:16.832Z,100341.52
2022-09-09T12:05:22.336Z,100343.54
2022-09-09T12:20:32.572Z,100342.25
2022-09-09T12:35:39.901Z,100350.75
2022-09-09T12:50:50.811Z,100350.66
2022-09-09T13:06:02.226Z,100356.39
2022-09-09T13:21:06.491Z,100352.65
2022-09-09T13:36:15.826Z,100331.23
2022-09-09T13:51:27.810Z,100331.53
2022-09-09T14:06:31.697Z,100339.11
2022-09-09T14:21:35.758Z,100333.45
2022-09-09T14:36:39.539Z,100358.01
2022-09-09T14:51:43.782Z,100358.99
2022-09-09T15:06:49.711Z,100364.75
2022-09-09T15:21:53.858Z,100369.38
2022-09-09T15:36:57.738Z,100371.98
2022-09-09T15:54:56.296Z,100371.09
2022-09-09T16:10:00.577Z,100372.00
2022-09-09T16:25:04.372Z,100367.15
2022-09-09T16:40:08.906Z,100379.18
2022-09-09T16:55:13.540Z,100376.67
2022-09-09T17:10:17.674Z,100392.34
2022-09-09T17:25:25.041Z,100402.11
2022-09-09T17:40:29.560Z,100412.43
2022-09-09T17:55:34.960Z,100424.27
2022-09-09T18:10:39.942Z,100429.80
2022-09-09T18:25:45.394Z,100424.11
2022-09-09T18:40:49.371Z,100428.92
2022-09-09T18:56:00.792Z,100449.30
2022-09-09T19:11:09.364Z,100452.60
2022-09-09T19:26:18.646Z,100456.02
2022-09-09T19:41:25.450Z,100443.62
2022-09-09T19:56:31.365Z,100430.24
2022-09-09T20:11:36.804Z,100435.55
2022-09-09T20:26:41.536Z,100439.73
2022-09-09T20:41:46.769Z,100449.55
2022-09-09T20:56:51.899Z,100437.20
2022-09-09T21:11:55.047Z,100440.08
2022-09-09T21:27:01.000Z,100460.32
2022-09-09T21:42:05.515Z,100458.97
2022-09-09T21:57:08.651Z,100448.02
2022-09-09T22:12:11.772Z,100451.89
2022-09-09T22:27:15.943Z,100454.11
2022-09-09T22:42:19.588Z,100426.66
2022-09-09T22:57:22.718Z,100426.42
2022-09-09T23:12:25.959Z,100423.01
2022-09-09T23:27:30.075Z,100420.77
2022-09-09T23:42:33.646Z,100419.45
2022-09-09T23:57:36.949Z,100411.91
